createdAt,value
2023-05-16T00:02:58.973Z,6.53
2023-05-16T00:06:02.769Z,6.30
2023-05-16T00:09:05.005Z,7.30
2023-05-16T00:12:07.808Z,7.65
2023-05-16T00:15:14.270Z,7.75
2023-05-16T00:18:17.056Z,8.68
2023-05-16T00:21:20.912Z,7.78
2023-05-16T00:24:24.631Z,7.93
2023-05-16T00:27:26.958Z,7.30
2023-05-16T00:30:29.311Z,8.48
2023-05-16T00:33:31.912Z,7.65
2023-05-16T00:36:35.867Z,7.35
2023-05-16T00:39:38.259Z,7.53
2023-05-16T00:42:40.529Z,7.18
2023-05-16T00:45:43.107Z,7.57
2023-05-16T00:48:45.682Z,7.40
2023-05-16T00:51:48.464Z,7.65
2023-05-16T00:54:51.595Z,8.57
2023-05-16T00:57:54.058Z,7.43
2023-05-16T01:00:56.354Z,7.57
2023-05-16T01:04:01.001Z,7.68
2023-05-16T01:07:03.433Z,7.85
2023-05-16T01:10:06.652Z,7.77
2023-05-16T01:13:24.959Z,8.13
2023-05-16T01:16:32.250Z,8.68
2023-05-16T01:19:53.103Z,7.95
2023-05-16T01:23:05.644Z,8.55
2023-05-16T01:26:25.244Z,8.80
2023-05-16T01:29:27.860Z,9.20
2023-05-16T01:32:30.362Z,7.90
2023-05-16T01:35:33.045Z,8.30
2023-05-16T01:39:01.917Z,8.05
2023-05-16T01:42:14.855Z,6.43
2023-05-16T01:45:29.687Z,7.07
2023-05-16T01:48:36.884Z,7.88
2023-05-16T01:51:40.157Z,6.10
2023-05-16T01:54:48.092Z,6.32
2023-05-16T01:57:50.745Z,5.67
2023-05-16T02:00:54.130Z,5.70
2023-05-16T02:03:56.635Z,5.65
2023-05-16T02:07:00.564Z,5.43
2023-05-16T02:10:05.968Z,5.38
2023-05-16T02:13:11.304Z,5.07
2023-05-16T02:16:13.674Z,5.53
2023-05-16T02:19:17.124Z,5.40
2023-05-16T02:22:19.502Z,5.70
2023-05-16T02:25:21.828Z,5.32
2023-05-16T02:28:24.125Z,5.10
2023-05-16T02:31:31.146Z,5.00
2023-05-16T02:34:33.672Z,5.50
2023-05-16T02:37:35.923Z,4.65
2023-05-16T02:40:38.365Z,5.18
2023-05-16T02:43:40.837Z,4.67
2023-05-16T02:46:45.574Z,4.47
2023-05-16T02:49:48.008Z,4.70
2023-05-16T02:52:50.943Z,4.15
2023-05-16T02:55:53.287Z,4.53
2023-05-16T02:58:56.352Z,4.37
2023-05-16T03:01:58.770Z,4.35
2023-05-16T03:05:01.984Z,4.20
2023-05-16T03:08:04.478Z,4.00
2023-05-16T03:11:09.505Z,4.20
2023-05-16T03:14:12.344Z,4.30
2023-05-16T03:17:14.732Z,3.83
2023-05-16T03:20:17.196Z,3.55
2023-05-16T03:23:20.436Z,3.20
2023-05-16T03:26:22.922Z,3.47
2023-05-16T03:29:27.274Z,3.37
2023-05-16T03:32:29.722Z,3.00
2023-05-16T03:35:33.010Z,3.25
2023-05-16T03:38:35.661Z,3.35
2023-05-16T03:41:38.206Z,3.00
2023-05-16T03:44:40.498Z,3.00
2023-05-16T03:47:42.949Z,3.30
2023-05-16T03:50:45.801Z,3.30
2023-05-16T03:53:48.076Z,2.90
2023-05-16T03:56:50.470Z,3.50
2023-05-16T03:59:52.822Z,3.10
2023-05-16T04:02:55.314Z,3.13
2023-05-16T04:05:57.834Z,3.05
2023-05-16T04:09:00.142Z,2.80
2023-05-16T04:12:03.308Z,2.88
2023-05-16T04:15:06.878Z,2.70
2023-05-16T04:18:09.920Z,1.92
2023-05-16T04:21:15.335Z,2.60
2023-05-16T04:24:17.948Z,2.40
2023-05-16T04:27:20.329Z,2.20
2023-05-16T04:30:22.637Z,2.23
2023-05-16T04:33:25.172Z,2.30
2023-05-16T04:36:30.173Z,2.70
2023-05-16T04:39:32.518Z,2.30
2023-05-16T04:45:37.933Z,2.70
2023-05-16T04:48:40.604Z,2.60
2023-05-16T04:51:42.903Z,2.83
2023-05-16T04:54:45.139Z,3.00
2023-05-16T04:57:47.489Z,3.20
2023-05-16T05:00:51.525Z,2.20
2023-05-16T05:03:53.757Z,2.35
2023-05-16T05:06:56.176Z,2.40
2023-05-16T05:09:58.589Z,2.47
2023-05-16T05:13:00.968Z,2.60
2023-05-16T05:16:05.023Z,2.83
2023-05-16T05:19:08.949Z,2.25
2023-05-16T05:22:11.349Z,2.70
2023-05-16T05:25:14.384Z,2.10
2023-05-16T05:28:17.069Z,2.80
2023-05-16T05:31:19.378Z,2.67
2023-05-16T05:34:21.995Z,3.00
2023-05-16T05:37:24.406Z,2.97
2023-05-16T05:40:26.936Z,2.95
2023-05-16T05:43:29.253Z,2.90
2023-05-16T05:46:31.910Z,2.87
2023-05-16T05:49:34.329Z,3.65
2023-05-16T05:52:36.644Z,3.63
2023-05-16T05:55:41.776Z,3.00
2023-05-16T05:58:44.274Z,3.65
2023-05-16T06:01:46.997Z,4.17
2023-05-16T06:04:49.244Z,3.60
2023-05-16T06:07:53.029Z,4.40
2023-05-16T06:10:55.519Z,3.22
2023-05-16T06:13:57.818Z,4.10
2023-05-16T06:17:00.165Z,3.17
2023-05-16T06:20:02.799Z,3.45
2023-05-16T06:23:05.121Z,3.00
2023-05-16T06:26:07.381Z,3.10
2023-05-16T06:29:09.600Z,3.50
2023-05-16T06:32:13.363Z,3.03
2023-05-16T06:35:16.000Z,3.25
2023-05-16T06:38:19.582Z,2.83
2023-05-16T06:41:21.959Z,3.20
2023-05-16T06:44:24.458Z,3.45
2023-05-16T06:47:26.837Z,3.10
2023-05-16T06:50:29.144Z,3.13
2023-05-16T06:53:31.562Z,3.63
2023-05-16T06:56:33.909Z,3.40
2023-05-16T06:59:36.801Z,4.25
2023-05-16T07:02:39.296Z,4.40
2023-05-16T07:05:42.036Z,4.32
2023-05-16T07:08:44.316Z,4.70
2023-05-16T07:11:46.666Z,5.35
2023-05-16T07:14:48.957Z,5.90
2023-05-16T07:17:53.993Z,5.60
2023-05-16T07:20:56.337Z,5.53
2023-05-16T07:23:58.748Z,5.63
2023-05-16T07:27:01.074Z,7.22
2023-05-16T07:30:03.492Z,8.23
2023-05-16T07:33:06.061Z,8.40
2023-05-16T07:39:17.534Z,8.65
2023-05-16T07:42:19.837Z,8.90
2023-05-16T07:45:22.144Z,8.27
2023-05-16T07:48:24.492Z,8.53
2023-05-16T07:51:26.841Z,8.27
2023-05-16T07:54:29.147Z,8.88
2023-05-16T07:57:31.520Z,8.45
2023-05-16T08:00:33.937Z,7.88
2023-05-16T08:03:36.890Z,8.77
2023-05-16T08:06:39.269Z,9.27
2023-05-16T08:09:41.873Z,10.20
2023-05-16T08:12:44.347Z,9.85
2023-05-16T08:15:46.885Z,9.60
2023-05-16T08:18:51.012Z,7.97
2023-05-16T08:21:53.439Z,7.00
2023-05-16T08:25:00.538Z,7.90
2023-05-16T08:28:02.978Z,6.30
2023-05-16T08:31:05.487Z,6.53
2023-05-16T08:34:09.482Z,5.23
2023-05-16T08:37:12.798Z,5.18
2023-05-16T08:40:15.555Z,3.65
2023-05-16T08:43:18.316Z,3.78
2023-05-16T08:46:22.822Z,3.22
2023-05-16T08:49:27.674Z,3.40
2023-05-16T08:52:31.997Z,2.65
2023-05-16T08:55:36.101Z,2.45
2023-05-16T08:58:38.614Z,2.22
2023-05-16T09:01:41.764Z,2.70
2023-05-16T09:04:45.187Z,2.23
2023-05-16T09:07:51.097Z,2.38
2023-05-16T09:10:54.953Z,3.42
2023-05-16T09:14:17.679Z,2.38
2023-05-16T09:17:28.548Z,1.80
2023-05-16T09:20:50.412Z,2.23
2023-05-16T09:23:56.004Z,2.33
2023-05-16T09:27:58.288Z,2.72
2023-05-16T09:31:28.066Z,2.22
2023-05-16T09:39:42.651Z,2.60
2023-05-16T09:46:59.659Z,2.85
2023-05-16T09:50:02.061Z,2.55
2023-05-16T09:53:05.943Z,3.30
2023-05-16T09:56:12.655Z,3.63
2023-05-16T09:59:15.042Z,3.63
2023-05-16T10:02:17.597Z,4.15
2023-05-16T10:05:20.052Z,4.15
2023-05-16T10:08:23.644Z,4.53
2023-05-16T10:11:26.584Z,5.70
2023-05-16T10:14:28.999Z,4.57
2023-05-16T10:46:32.818Z,3.92
2023-05-16T10:49:35.599Z,3.40
2023-05-16T10:52:37.930Z,4.03
2023-05-16T10:55:59.061Z,3.83
2023-05-16T10:59:01.460Z,4.35
2023-05-16T11:02:04.043Z,4.30
2023-05-16T11:05:07.031Z,6.22
2023-05-16T11:08:16.790Z,10.10
2023-05-16T11:11:46.491Z,8.38
2023-05-16T11:14:52.072Z,8.43
2023-05-16T11:18:08.253Z,5.00
2023-05-16T11:21:11.325Z,4.88
2023-05-16T11:24:33.524Z,5.07
2023-05-16T11:27:44.100Z,5.00
2023-05-16T11:30:52.225Z,4.28
2023-05-16T11:33:58.317Z,5.00
2023-05-16T11:37:02.201Z,4.60
2023-05-16T11:40:11.548Z,5.10
2023-05-16T11:43:27.571Z,5.22
2023-05-16T11:46:29.955Z,5.20
2023-05-16T11:49:34.671Z,4.70
2023-05-16T11:52:37.673Z,5.30
2023-05-16T11:55:57.634Z,6.30
2023-05-16T11:59:03.651Z,5.10
2023-05-16T12:03:12.188Z,5.05
2023-05-16T12:06:15.630Z,3.90
2023-05-16T12:09:18.903Z,4.30
2023-05-16T12:12:22.097Z,4.70
2023-05-16T12:15:24.716Z,3.53
2023-05-16T12:18:27.276Z,4.43
2023-05-16T12:21:31.322Z,4.15
2023-05-16T12:24:33.858Z,4.03
2023-05-16T12:27:36.477Z,4.07
2023-05-16T12:30:44.600Z,3.58
2023-05-16T12:33:46.998Z,3.38
2023-05-16T12:36:54.101Z,3.92
2023-05-16T12:40:04.356Z,4.15
2023-05-16T12:43:14.501Z,4.00
2023-05-16T12:46:17.653Z,4.18
2023-05-16T12:49:21.864Z,4.05
2023-05-16T12:52:24.641Z,4.40
2023-05-16T12:55:27.137Z,4.47
2023-05-16T12:58:30.865Z,4.23
2023-05-16T13:01:35.106Z,4.63
2023-05-16T13:04:37.783Z,4.40
2023-05-16T13:07:41.002Z,4.13
2023-05-16T13:10:43.267Z,4.70
2023-05-16T13:13:45.641Z,4.17
2023-05-16T13:16:47.883Z,4.63
2023-05-16T13:19:50.631Z,4.93
2023-05-16T13:22:53.189Z,4.65
2023-05-16T13:25:57.288Z,4.40
2023-05-16T13:28:59.715Z,4.87
2023-05-16T13:32:02.125Z,4.28
2023-05-16T13:35:10.831Z,4.53
2023-05-16T13:38:13.697Z,4.07
2023-05-16T13:41:16.140Z,5.07
2023-05-16T13:44:18.766Z,5.03
2023-05-16T13:47:21.170Z,5.07
2023-05-16T13:50:23.671Z,4.40
2023-05-16T13:57:36.313Z,4.47
2023-05-16T14:04:47.846Z,4.55
2023-05-16T14:08:05.175Z,4.93
2023-05-16T14:12:02.468Z,4.40
2023-05-16T14:15:05.724Z,4.05
2023-05-16T14:18:08.594Z,4.27
2023-05-16T14:21:11.283Z,3.90
2023-05-16T14:24:13.769Z,4.32
2023-05-16T14:27:16.973Z,4.30
2023-05-16T14:30:19.436Z,4.75
2023-05-16T14:33:21.773Z,4.80
2023-05-16T14:36:24.180Z,4.82
2023-05-16T14:39:27.274Z,5.53
2023-05-16T14:42:29.793Z,5.95
2023-05-16T14:45:32.101Z,5.95
2023-05-16T14:48:34.534Z,5.07
2023-05-16T14:51:37.092Z,5.18
2023-05-16T14:54:39.388Z,5.40
2023-05-16T14:57:44.684Z,5.35
2023-05-16T15:00:48.898Z,5.07
2023-05-16T15:03:55.311Z,5.03
2023-05-16T15:06:58.832Z,4.63
2023-05-16T15:10:01.203Z,5.40
2023-05-16T15:13:04.374Z,4.90
2023-05-16T15:16:07.844Z,5.30
2023-05-16T15:19:10.566Z,5.33
2023-05-16T15:22:14.455Z,5.05
2023-05-16T15:25:17.039Z,4.70
2023-05-16T15:28:22.426Z,4.70
2023-05-16T15:31:25.519Z,5.80
2023-05-16T15:34:28.844Z,5.90
2023-05-16T15:37:31.235Z,5.05
2023-05-16T15:40:33.537Z,5.05
2023-05-16T15:43:36.252Z,5.13
2023-05-16T15:46:39.490Z,5.47
2023-05-16T15:49:42.015Z,5.37
2023-05-16T15:52:44.897Z,5.03
2023-05-16T15:55:48.464Z,5.30
2023-05-16T15:58:50.868Z,5.40
2023-05-16T16:01:55.149Z,6.18
2023-05-16T16:04:57.614Z,5.17
2023-05-16T16:07:59.932Z,5.50
2023-05-16T16:11:02.891Z,4.60
2023-05-16T16:14:05.599Z,6.13
2023-05-16T16:17:08.215Z,5.63
2023-05-16T16:20:10.947Z,5.73
2023-05-16T16:23:13.497Z,5.72
2023-05-16T16:26:15.884Z,5.53
2023-05-16T16:29:18.273Z,5.57
2023-05-16T16:32:20.667Z,5.45
2023-05-16T16:35:26.207Z,6.07
2023-05-16T16:38:28.726Z,5.53
2023-05-16T16:41:31.140Z,6.03
2023-05-16T16:44:33.554Z,5.35
2023-05-16T16:47:35.964Z,6.53
2023-05-16T16:50:38.425Z,5.60
2023-05-16T16:53:41.137Z,5.25
2023-05-16T16:56:43.696Z,5.28
2023-05-16T16:59:46.781Z,4.72
2023-05-16T17:02:49.239Z,5.05
2023-05-16T17:05:53.300Z,5.53
2023-05-16T17:08:55.862Z,4.72
2023-05-16T17:11:58.222Z,14.73
2023-05-16T17:15:00.753Z,5.90
2023-05-16T17:18:05.230Z,5.78
2023-05-16T17:21:09.291Z,5.43
2023-05-16T17:24:11.609Z,5.43
2023-05-16T17:27:13.955Z,5.40
2023-05-16T17:30:18.738Z,6.13
2023-05-16T17:33:21.477Z,6.20
2023-05-16T17:36:24.866Z,5.40
2023-05-16T17:39:30.783Z,4.95
2023-05-16T17:42:33.178Z,5.35
2023-05-16T17:45:35.601Z,5.50
2023-05-16T17:48:37.993Z,5.40
2023-05-16T17:51:52.259Z,5.10
2023-05-16T17:54:54.764Z,5.63
2023-05-16T17:57:57.105Z,5.53
2023-05-16T18:00:59.587Z,5.03
2023-05-16T18:04:02.000Z,4.75
2023-05-16T18:07:04.740Z,4.70
2023-05-16T18:10:07.622Z,4.72
2023-05-16T18:13:09.978Z,4.75
2023-05-16T18:16:12.765Z,4.75
2023-05-16T18:19:15.255Z,4.60
2023-05-16T18:22:17.659Z,4.93
2023-05-16T18:25:20.104Z,4.30
2023-05-16T18:28:22.844Z,5.18
2023-05-16T18:31:25.391Z,5.43
2023-05-16T18:34:28.652Z,5.80
2023-05-16T18:37:31.273Z,6.27
2023-05-16T18:40:34.859Z,6.60
2023-05-16T18:43:38.054Z,6.32
2023-05-16T18:46:40.592Z,7.13
2023-05-16T18:49:43.582Z,7.10
2023-05-16T18:52:46.100Z,6.03
2023-05-16T18:55:49.018Z,4.80
2023-05-16T18:58:51.677Z,4.90
2023-05-16T19:01:53.972Z,5.68
2023-05-16T19:04:58.157Z,6.18
2023-05-16T19:08:01.411Z,6.67
2023-05-16T19:11:03.712Z,7.03
2023-05-16T19:14:06.782Z,7.72
2023-05-16T19:17:09.199Z,7.55
2023-05-16T19:20:11.768Z,7.75
2023-05-16T19:23:14.552Z,7.30
2023-05-16T19:26:17.054Z,7.53
2023-05-16T19:29:21.506Z,6.65
2023-05-16T19:32:24.053Z,7.22
2023-05-16T19:35:27.256Z,6.65
2023-05-16T19:38:29.885Z,7.30
2023-05-16T19:41:32.317Z,6.90
2023-05-16T19:44:35.116Z,7.15
2023-05-16T19:47:37.858Z,7.18
2023-05-16T19:50:40.371Z,6.15
2023-05-16T19:53:43.217Z,6.20
2023-05-16T19:56:45.697Z,7.22
2023-05-16T19:59:48.018Z,7.10
2023-05-16T20:02:50.644Z,6.80
2023-05-16T20:05:53.066Z,6.95
2023-05-16T20:08:56.302Z,6.63
2023-05-16T20:11:58.981Z,7.53
2023-05-16T20:15:01.572Z,6.97
2023-05-16T20:18:04.147Z,7.30
2023-05-16T20:21:06.602Z,6.35
2023-05-16T20:24:09.012Z,7.30
2023-05-16T20:27:11.397Z,7.60
2023-05-16T20:30:14.412Z,7.10
2023-05-16T20:33:16.959Z,7.35
2023-05-16T20:36:19.379Z,7.00
2023-05-16T20:39:21.978Z,7.87
2023-05-16T20:42:24.377Z,7.38
2023-05-16T20:45:28.643Z,8.65
2023-05-16T20:48:31.392Z,7.38
2023-05-16T20:51:33.872Z,7.65
2023-05-16T20:54:36.444Z,7.40
2023-05-16T20:57:38.868Z,7.00
2023-05-16T21:00:41.655Z,7.30
2023-05-16T21:03:44.060Z,7.15
2023-05-16T21:06:46.877Z,7.03
2023-05-16T21:09:49.436Z,8.40
2023-05-16T21:12:51.774Z,7.05
2023-05-16T21:15:54.264Z,8.00
2023-05-16T21:18:56.834Z,7.53
2023-05-16T21:21:59.140Z,7.68
2023-05-16T21:25:01.533Z,7.30
2023-05-16T21:28:04.249Z,7.97
2023-05-16T21:31:07.348Z,8.05
2023-05-16T21:34:09.907Z,8.30
2023-05-16T21:37:12.561Z,8.98
2023-05-16T21:40:19.161Z,7.87
2023-05-16T21:43:21.446Z,8.70
2023-05-16T21:46:23.830Z,8.18
2023-05-16T21:49:26.258Z,9.13
2023-05-16T21:52:28.646Z,8.35
2023-05-16T21:55:31.110Z,8.60
2023-05-16T21:58:33.472Z,8.60
2023-05-16T22:01:36.234Z,9.00
2023-05-16T22:04:38.578Z,9.18
2023-05-16T22:07:41.257Z,8.85
2023-05-16T22:10:43.613Z,9.07
2023-05-16T22:13:46.223Z,8.90
2023-05-16T22:16:48.569Z,8.68
2023-05-16T22:19:50.966Z,8.75
2023-05-16T22:22:53.398Z,8.68
2023-05-16T22:25:55.975Z,8.33
2023-05-16T22:28:58.388Z,8.85
2023-05-16T22:32:00.726Z,9.20
2023-05-16T22:35:03.235Z,9.20
2023-05-16T22:38:05.616Z,8.57
2023-05-16T22:41:07.894Z,8.67
2023-05-16T22:44:10.286Z,7.90
2023-05-16T22:47:12.867Z,7.95
2023-05-16T22:50:15.417Z,7.85
2023-05-16T22:53:17.750Z,8.73
2023-05-16T22:56:20.117Z,8.70
2023-05-16T22:59:22.600Z,8.63
2023-05-16T23:02:24.961Z,8.48
2023-05-16T23:05:27.566Z,8.30
2023-05-16T23:08:30.113Z,8.82
2023-05-16T23:11:33.158Z,8.73
2023-05-16T23:14:35.434Z,8.50
2023-05-16T23:17:38.520Z,8.20
2023-05-16T23:20:41.814Z,7.90
2023-05-16T23:23:44.236Z,8.25
2023-05-16T23:26:46.595Z,8.67
2023-05-16T23:29:48.897Z,8.93
2023-05-16T23:32:54.640Z,8.75
2023-05-16T23:35:57.120Z,8.32
2023-05-16T23:38:59.454Z,8.13
2023-05-16T23:42:01.959Z,8.23
2023-05-16T23:45:04.935Z,8.50
2023-05-16T23:48:07.448Z,8.40
2023-05-16T23:51:09.891Z,8.70
2023-05-16T23:54:12.215Z,7.80
2023-05-16T23:57:14.504Z,8.33
